createdAt,value
2023-04-12T00:02:10.041Z,93.18
2023-04-12T00:04:39.493Z,93.40
2023-04-12T00:07:10.314Z,93.46
2023-04-12T00:09:39.609Z,93.47
2023-04-12T00:12:07.763Z,93.66
2023-04-12T00:14:35.754Z,94.35
2023-04-12T00:17:03.493Z,94.28
2023-04-12T00:19:32.106Z,94.90
2023-04-12T00:21:59.895Z,93.48
2023-04-12T00:24:27.681Z,93.11
2023-04-12T00:26:56.509Z,93.30
2023-04-12T00:29:24.319Z,92.93
2023-04-12T00:31:52.900Z,92.96
2023-04-12T00:34:21.474Z,93.06
2023-04-12T00:36:50.683Z,93.59
2023-04-12T00:39:18.495Z,93.11
2023-04-12T00:41:47.156Z,92.88
2023-04-12T00:44:18.406Z,92.62
2023-04-12T00:46:47.530Z,93.20
2023-04-12T00:49:16.851Z,92.78
2023-04-12T00:51:44.850Z,92.79
2023-04-12T00:54:13.264Z,92.81
2023-04-12T00:56:41.967Z,93.06
2023-04-12T00:59:09.773Z,93.07
2023-04-12T01:01:38.592Z,93.59
2023-04-12T01:04:07.964Z,92.99
2023-04-12T01:07:19.255Z,93.37
2023-04-12T01:10:34.463Z,93.67
2023-04-12T01:13:59.515Z,94.95
2023-04-12T01:16:51.374Z,94.85
2023-04-12T01:19:46.434Z,95.84
2023-04-12T01:23:19.506Z,95.89
2023-04-12T01:26:11.864Z,95.81
2023-04-12T01:28:44.970Z,95.99
2023-04-12T01:31:14.592Z,95.56
2023-04-12T01:33:45.805Z,95.44
2023-04-12T01:36:22.817Z,95.09
2023-04-12T01:38:52.263Z,95.17
2023-04-12T01:41:20.400Z,95.07
2023-04-12T01:43:49.204Z,94.76
2023-04-12T01:46:21.379Z,94.92
2023-04-12T01:48:53.243Z,95.22
2023-04-12T01:52:13.321Z,93.96
2023-04-12T01:54:45.592Z,94.05
2023-04-12T01:57:16.618Z,94.21
2023-04-12T01:59:46.338Z,94.44
2023-04-12T02:02:15.231Z,93.90
2023-04-12T02:04:44.374Z,93.73
2023-04-12T02:07:14.792Z,93.44
2023-04-12T02:09:43.377Z,93.46
2023-04-12T02:12:11.321Z,93.80
2023-04-12T02:14:40.267Z,93.52
2023-04-12T02:17:08.850Z,94.13
2023-04-12T02:19:36.814Z,95.03
2023-04-12T02:22:05.996Z,96.16
2023-04-12T02:24:34.151Z,95.89
2023-04-12T02:27:02.008Z,96.37
2023-04-12T02:29:29.819Z,96.37
2023-04-12T02:31:57.670Z,96.45
2023-04-12T02:34:27.272Z,96.22
2023-04-12T02:36:55.049Z,96.70
2023-04-12T02:39:23.661Z,96.34
2023-04-12T02:41:53.288Z,96.97
2023-04-12T02:44:21.872Z,96.16
2023-04-12T02:46:49.644Z,95.82
2023-04-12T02:49:17.415Z,95.60
2023-04-12T02:51:45.521Z,95.46
2023-04-12T02:54:14.082Z,94.85
2023-04-12T02:56:44.066Z,94.79
2023-04-12T02:59:13.713Z,94.70
2023-04-12T03:01:46.978Z,94.54
2023-04-12T03:04:17.219Z,94.67
2023-04-12T03:06:52.769Z,94.65
2023-04-12T03:09:21.703Z,94.69
2023-04-12T03:11:51.627Z,94.26
2023-04-12T03:14:19.821Z,94.21
2023-04-12T03:16:49.306Z,94.51
2023-04-12T03:19:20.603Z,94.30
2023-04-12T03:21:48.376Z,94.61
2023-04-12T03:24:16.290Z,94.22
2023-04-12T03:26:45.885Z,94.09
2023-04-12T03:29:13.629Z,93.89
2023-04-12T03:31:44.935Z,93.81
2023-04-12T03:34:12.752Z,93.88
2023-04-12T03:36:41.762Z,93.07
2023-04-12T03:39:09.643Z,93.58
2023-04-12T03:41:38.249Z,93.27
2023-04-12T03:44:06.776Z,93.22
2023-04-12T03:46:35.322Z,93.26
2023-04-12T03:49:03.192Z,93.34
2023-04-12T03:51:31.117Z,93.02
2023-04-12T03:53:59.998Z,92.87
2023-04-12T03:56:28.679Z,93.01
2023-04-12T03:58:56.530Z,92.96
2023-04-12T04:01:24.324Z,92.91
2023-04-12T04:03:53.440Z,93.08
2023-04-12T04:06:23.116Z,93.04
2023-04-12T04:08:50.970Z,92.86
2023-04-12T04:11:20.908Z,93.75
2023-04-12T04:13:48.790Z,93.04
2023-04-12T04:16:18.562Z,92.88
2023-04-12T04:18:46.463Z,92.86
2023-04-12T04:21:17.833Z,93.05
2023-04-12T04:23:48.167Z,93.18
2023-04-12T04:26:17.248Z,92.67
2023-04-12T04:28:47.679Z,92.56
2023-04-12T04:31:17.831Z,91.73
2023-04-12T04:33:46.028Z,91.94
2023-04-12T04:36:16.893Z,91.53
2023-04-12T04:38:46.169Z,91.29
2023-04-12T04:41:17.773Z,91.43
2023-04-12T04:43:47.058Z,91.18
2023-04-12T04:46:15.179Z,91.63
2023-04-12T04:48:43.388Z,90.55
2023-04-12T04:51:13.139Z,86.37
2023-04-12T04:53:41.124Z,73.16
2023-04-12T04:56:09.721Z,70.12
2023-04-12T04:58:39.718Z,71.81
2023-04-12T05:01:07.941Z,69.53
2023-04-12T05:03:41.143Z,65.90
2023-04-12T05:06:09.767Z,76.96
2023-04-12T05:08:40.294Z,77.96
2023-04-12T05:11:08.202Z,76.64
2023-04-12T05:13:35.958Z,78.24
2023-04-12T05:16:08.474Z,81.49
2023-04-12T05:18:36.547Z,80.22
2023-04-12T05:21:05.923Z,79.18
2023-04-12T05:23:46.286Z,77.05
2023-04-12T05:26:14.975Z,80.13
2023-04-12T05:28:42.748Z,78.38
2023-04-12T05:31:10.543Z,67.29
2023-04-12T05:33:38.379Z,72.14
2023-04-12T05:36:07.013Z,76.42
2023-04-12T05:38:34.821Z,71.41
2023-04-12T05:41:04.945Z,69.44
2023-04-12T05:43:33.383Z,68.26
2023-04-12T05:46:03.010Z,59.44
2023-04-12T05:48:31.570Z,61.69
2023-04-12T05:50:59.316Z,64.61
2023-04-12T05:53:29.885Z,69.24
2023-04-12T05:55:57.780Z,69.12
2023-04-12T05:58:25.665Z,67.04
2023-04-12T06:00:55.535Z,60.97
2023-04-12T06:03:24.198Z,59.61
2023-04-12T06:05:53.292Z,48.80
2023-04-12T06:08:21.220Z,47.49
2023-04-12T06:10:49.033Z,47.87
2023-04-12T06:13:17.632Z,55.86
2023-04-12T06:15:45.757Z,56.81
2023-04-12T06:18:13.551Z,52.96
2023-04-12T06:20:41.394Z,51.90
2023-04-12T06:23:09.243Z,54.71
2023-04-12T06:25:37.574Z,53.16
2023-04-12T06:28:05.974Z,49.15
2023-04-12T06:30:33.724Z,48.10
2023-04-12T06:33:01.536Z,44.51
2023-04-12T06:35:29.387Z,45.04
2023-04-12T06:37:57.935Z,45.28
2023-04-12T06:40:27.494Z,40.63
2023-04-12T06:42:55.517Z,42.17
2023-04-12T06:45:23.366Z,42.91
2023-04-12T06:47:51.221Z,40.63
2023-04-12T06:50:19.142Z,34.95
2023-04-12T06:52:49.120Z,33.88
2023-04-12T06:55:17.239Z,30.40
2023-04-12T06:57:46.361Z,31.41
2023-04-12T07:00:15.079Z,33.57
2023-04-12T07:02:42.973Z,30.75
2023-04-12T07:05:10.980Z,29.32
2023-04-12T07:07:42.265Z,31.46
2023-04-12T07:10:10.930Z,30.52
2023-04-12T07:12:39.361Z,29.44
2023-04-12T07:15:07.931Z,33.40
2023-04-12T07:17:36.823Z,30.41
2023-04-12T07:20:06.142Z,30.38
2023-04-12T07:22:34.549Z,27.44
2023-04-12T07:25:06.806Z,29.55
2023-04-12T07:27:36.765Z,35.37
2023-04-12T07:30:07.519Z,39.89
2023-04-12T07:32:35.353Z,44.07
2023-04-12T07:35:03.192Z,44.96
2023-04-12T07:37:31.059Z,44.72
2023-04-12T07:39:58.829Z,44.53
2023-04-12T07:42:26.516Z,45.55
2023-04-12T07:44:54.323Z,46.31
2023-04-12T07:47:22.174Z,45.84
2023-04-12T07:49:50.159Z,45.05
2023-04-12T07:52:17.900Z,45.75
2023-04-12T07:54:50.344Z,48.18
2023-04-12T07:57:18.133Z,47.24
2023-04-12T07:59:45.888Z,46.59
2023-04-12T08:02:13.800Z,48.31
2023-04-12T08:04:44.526Z,47.01
2023-04-12T08:07:12.364Z,47.81
2023-04-12T08:09:40.103Z,46.87
2023-04-12T08:12:08.261Z,46.63
2023-04-12T08:14:36.607Z,48.02
2023-04-12T08:17:05.307Z,46.21
2023-04-12T08:19:33.088Z,46.58
2023-04-12T08:22:01.119Z,46.89
2023-04-12T08:24:28.910Z,47.20
2023-04-12T08:26:56.649Z,46.85
2023-04-12T08:29:24.489Z,47.67
2023-04-12T08:31:52.751Z,47.06
2023-04-12T08:34:22.551Z,48.72
2023-04-12T08:36:50.307Z,47.73
2023-04-12T08:39:18.095Z,47.28
2023-04-12T08:41:46.434Z,45.81
2023-04-12T08:44:15.023Z,46.89
2023-04-12T08:46:42.982Z,45.12
2023-04-12T08:49:11.831Z,47.95
2023-04-12T08:51:40.493Z,46.30
2023-04-12T08:54:08.249Z,47.12
2023-04-12T08:56:36.266Z,47.28
2023-04-12T08:59:04.822Z,45.55
2023-04-12T09:01:37.571Z,44.82
2023-04-12T09:04:08.422Z,45.88
2023-04-12T09:06:39.932Z,45.50
2023-04-12T09:09:08.303Z,44.17
2023-04-12T09:11:36.670Z,45.66
2023-04-12T09:14:06.258Z,45.02
2023-04-12T09:16:42.137Z,44.29
2023-04-12T09:19:10.294Z,44.46
2023-04-12T09:21:55.532Z,44.46
2023-04-12T09:24:26.312Z,44.68
2023-04-12T09:27:07.602Z,44.26
2023-04-12T09:29:35.434Z,43.36
2023-04-12T09:32:09.562Z,43.58
2023-04-12T09:34:39.957Z,43.38
2023-04-12T09:37:17.789Z,44.20
2023-04-12T09:39:45.566Z,42.86
2023-04-12T09:42:29.834Z,42.44
2023-04-12T09:45:22.568Z,43.78
2023-04-12T09:47:51.029Z,43.48
2023-04-12T09:50:28.801Z,42.05
2023-04-12T09:52:58.601Z,42.28
2023-04-12T09:55:32.556Z,42.73
2023-04-12T09:58:05.112Z,41.65
2023-04-12T10:00:34.723Z,41.89
2023-04-12T10:03:02.981Z,41.86
2023-04-12T10:05:31.515Z,40.07
2023-04-12T10:07:59.568Z,39.48
2023-04-12T10:10:27.465Z,40.53
2023-04-12T10:12:56.000Z,40.57
2023-04-12T10:15:26.940Z,40.05
2023-04-12T10:17:57.914Z,40.79
2023-04-12T10:20:28.940Z,38.75
2023-04-12T10:22:59.903Z,39.31
2023-04-12T10:25:31.207Z,40.09
2023-04-12T10:28:17.634Z,39.61
2023-04-12T10:30:49.670Z,39.75
2023-04-12T10:33:26.428Z,41.95
2023-04-12T10:36:08.795Z,42.32
2023-04-12T10:39:11.278Z,41.43
2023-04-12T10:41:39.049Z,40.29
2023-04-12T10:44:29.080Z,41.60
2023-04-12T10:46:56.887Z,41.06
2023-04-12T10:49:26.498Z,42.64
2023-04-12T10:52:06.354Z,41.20
2023-04-12T10:54:37.176Z,40.73
2023-04-12T10:57:06.625Z,41.42
2023-04-12T10:59:57.204Z,40.59
2023-04-12T11:02:25.444Z,41.21
2023-04-12T11:05:11.330Z,40.39
2023-04-12T11:07:45.070Z,41.09
2023-04-12T11:10:22.025Z,40.08
2023-04-12T11:12:57.410Z,39.19
2023-04-12T11:15:29.061Z,40.57
2023-04-12T11:18:00.451Z,39.19
2023-04-12T11:20:28.587Z,40.84
2023-04-12T11:22:56.444Z,39.00
2023-04-12T11:25:24.508Z,41.13
2023-04-12T11:27:55.108Z,39.78
2023-04-12T11:30:26.157Z,40.27
2023-04-12T11:32:55.726Z,39.68
2023-04-12T11:35:27.810Z,41.57
2023-04-12T11:37:57.948Z,41.61
2023-04-12T11:40:25.906Z,41.70
2023-04-12T11:42:53.683Z,42.89
2023-04-12T11:45:23.282Z,42.37
2023-04-12T11:47:52.411Z,42.99
2023-04-12T11:50:33.884Z,42.97
2023-04-12T11:53:16.207Z,42.27
2023-04-12T11:55:52.009Z,40.86
2023-04-12T11:58:28.260Z,40.73
2023-04-12T12:00:58.950Z,38.94
2023-04-12T12:03:30.744Z,39.19
2023-04-12T12:05:59.074Z,38.15
2023-04-12T12:08:27.284Z,39.64
2023-04-12T12:11:06.259Z,41.56
2023-04-12T12:13:50.402Z,41.01
2023-04-12T12:16:21.493Z,39.85
2023-04-12T12:18:52.623Z,38.00
2023-04-12T12:21:21.952Z,36.95
2023-04-12T12:23:51.017Z,38.49
2023-04-12T12:26:31.035Z,36.57
2023-04-12T12:29:02.384Z,39.86
2023-04-12T12:31:33.662Z,39.51
2023-04-12T12:34:05.880Z,39.70
2023-04-12T12:36:39.175Z,38.33
2023-04-12T12:39:12.822Z,40.22
2023-04-12T12:41:41.950Z,40.16
2023-04-12T12:44:12.464Z,41.29
2023-04-12T12:46:53.661Z,41.83
2023-04-12T12:49:24.913Z,41.19
2023-04-12T12:51:52.784Z,41.13
2023-04-12T12:54:36.887Z,40.67
2023-04-12T12:57:07.858Z,39.66
2023-04-12T12:59:35.877Z,40.58
2023-04-12T13:02:03.929Z,38.80
2023-04-12T13:04:31.941Z,39.61
2023-04-12T13:06:59.790Z,40.12
2023-04-12T13:09:27.684Z,40.75
2023-04-12T13:11:55.420Z,38.75
2023-04-12T13:14:23.159Z,38.81
2023-04-12T13:16:51.049Z,39.67
2023-04-12T13:19:19.085Z,40.61
2023-04-12T13:21:47.582Z,40.46
2023-04-12T13:24:15.672Z,40.85
2023-04-12T13:26:43.590Z,41.91
2023-04-12T13:29:11.293Z,41.54
2023-04-12T13:31:40.973Z,40.29
2023-04-12T13:34:08.700Z,39.69
2023-04-12T13:36:36.801Z,38.40
2023-04-12T13:39:04.585Z,37.22
2023-04-12T13:41:33.157Z,37.82
2023-04-12T13:44:01.864Z,39.21
2023-04-12T13:46:29.607Z,38.79
2023-04-12T13:48:58.060Z,37.86
2023-04-12T13:51:28.592Z,37.98
2023-04-12T13:53:56.970Z,38.51
2023-04-12T13:56:26.439Z,39.46
2023-04-12T13:58:55.058Z,39.52
2023-04-12T14:01:25.168Z,38.96
2023-04-12T14:03:57.188Z,38.93
2023-04-12T14:06:24.994Z,38.74
2023-04-12T14:08:56.585Z,38.18
2023-04-12T14:11:28.025Z,39.20
2023-04-12T14:13:56.661Z,37.43
2023-04-12T14:16:26.132Z,37.92
2023-04-12T14:18:53.851Z,38.63
2023-04-12T14:21:28.500Z,39.08
2023-04-12T14:23:56.808Z,37.55
2023-04-12T14:26:26.646Z,37.40
2023-04-12T14:28:54.361Z,37.72
2023-04-12T14:31:22.282Z,36.99
2023-04-12T14:33:50.044Z,36.79
2023-04-12T14:36:18.614Z,36.97
2023-04-12T14:38:46.400Z,37.24
2023-04-12T14:41:14.283Z,38.09
2023-04-12T14:43:42.207Z,37.04
2023-04-12T14:46:11.176Z,38.18
2023-04-12T14:48:39.077Z,36.53
2023-04-12T14:51:07.141Z,36.03
2023-04-12T14:53:36.908Z,36.88
2023-04-12T14:56:25.330Z,36.89
2023-04-12T14:58:56.044Z,37.29
2023-04-12T15:01:25.880Z,35.81
2023-04-12T15:03:56.045Z,37.35
2023-04-12T15:06:27.449Z,36.92
2023-04-12T15:08:55.402Z,36.57
2023-04-12T15:11:27.460Z,36.84
2023-04-12T15:13:56.326Z,37.05
2023-04-12T15:16:24.344Z,36.90
2023-04-12T15:18:52.294Z,36.84
2023-04-12T15:21:21.321Z,36.70
2023-04-12T15:23:50.676Z,36.33
2023-04-12T15:26:18.540Z,37.01
2023-04-12T15:28:46.459Z,36.81
2023-04-12T15:31:14.892Z,35.92
2023-04-12T15:33:42.676Z,36.46
2023-04-12T15:36:10.573Z,36.29
2023-04-12T15:38:43.114Z,36.75
2023-04-12T15:41:11.261Z,36.14
2023-04-12T15:43:39.025Z,36.50
2023-04-12T15:46:07.186Z,36.71
2023-04-12T15:48:38.995Z,37.34
2023-04-12T15:51:08.607Z,37.61
2023-04-12T15:53:38.265Z,37.37
2023-04-12T15:56:12.331Z,38.17
2023-04-12T15:58:40.183Z,37.92
2023-04-12T16:01:08.165Z,38.04
2023-04-12T16:03:37.243Z,37.50
2023-04-12T16:06:05.969Z,39.05
2023-04-12T16:08:33.803Z,38.08
2023-04-12T16:11:04.117Z,40.19
2023-04-12T16:13:36.768Z,39.46
2023-04-12T16:16:08.306Z,38.49
2023-04-12T16:18:36.185Z,37.87
2023-04-12T16:21:08.296Z,38.49
2023-04-12T16:23:39.603Z,37.63
2023-04-12T16:26:07.510Z,38.08
2023-04-12T16:28:39.426Z,38.45
2023-04-12T16:31:07.967Z,37.41
2023-04-12T16:33:37.729Z,37.68
2023-04-12T16:36:06.224Z,36.59
2023-04-12T16:38:35.088Z,38.42
2023-04-12T16:41:08.009Z,38.83
2023-04-12T16:43:36.591Z,39.19
2023-04-12T16:46:09.459Z,39.19
2023-04-12T16:48:41.896Z,38.58
2023-04-12T16:51:10.347Z,38.65
2023-04-12T16:53:40.628Z,39.60
2023-04-12T16:56:08.746Z,40.40
2023-04-12T16:58:36.741Z,40.38
2023-04-12T17:01:08.203Z,41.74
2023-04-12T17:03:36.227Z,42.61
2023-04-12T17:06:05.790Z,43.26
2023-04-12T17:08:37.517Z,44.00
2023-04-12T17:11:08.714Z,44.77
2023-04-12T17:13:37.569Z,43.05
2023-04-12T17:16:06.995Z,43.66
2023-04-12T17:18:37.100Z,43.93
2023-04-12T17:21:06.683Z,46.46
2023-04-12T17:23:39.560Z,44.01
2023-04-12T17:26:10.503Z,46.63
2023-04-12T17:28:39.934Z,46.54
2023-04-12T17:31:09.457Z,50.33
2023-04-12T17:33:38.428Z,48.14
2023-04-12T17:36:11.308Z,52.31
2023-04-12T17:38:40.372Z,52.70
2023-04-12T17:41:10.072Z,52.44
2023-04-12T17:43:40.088Z,55.05
2023-04-12T17:46:09.674Z,53.60
2023-04-12T17:48:41.504Z,57.32
2023-04-12T17:51:10.527Z,57.05
2023-04-12T17:53:42.057Z,53.23
2023-04-12T17:56:11.793Z,52.78
2023-04-12T17:58:40.477Z,54.60
2023-04-12T18:01:10.033Z,54.61
2023-04-12T18:03:39.045Z,54.33
2023-04-12T18:06:08.965Z,60.09
2023-04-12T18:08:37.871Z,58.74
2023-04-12T18:11:07.851Z,56.72
2023-04-12T18:13:36.926Z,57.99
2023-04-12T18:16:05.533Z,58.43
2023-04-12T18:18:36.412Z,59.44
2023-04-12T18:21:09.367Z,58.04
2023-04-12T18:23:39.003Z,54.58
2023-04-12T18:26:07.997Z,54.53
2023-04-12T18:31:07.643Z,55.53
2023-04-12T18:33:42.039Z,57.24
2023-04-12T18:36:12.094Z,61.64
2023-04-12T18:38:43.745Z,61.22
2023-04-12T18:41:17.922Z,62.52
2023-04-12T18:43:48.717Z,60.94
2023-04-12T18:46:20.804Z,59.66
2023-04-12T18:48:52.516Z,60.16
2023-04-12T18:51:23.936Z,60.91
2023-04-12T18:54:00.252Z,61.14
2023-04-12T18:56:33.623Z,64.16
2023-04-12T18:59:04.042Z,64.86
2023-04-12T19:01:35.622Z,62.96
2023-04-12T19:04:06.037Z,64.17
2023-04-12T19:06:35.690Z,67.14
2023-04-12T19:09:06.876Z,68.43
2023-04-12T19:11:37.121Z,70.14
2023-04-12T19:14:07.826Z,72.79
2023-04-12T19:16:37.919Z,74.69
2023-04-12T19:19:07.849Z,75.45
2023-04-12T19:21:37.936Z,74.60
2023-04-12T19:24:07.952Z,76.30
2023-04-12T19:26:40.439Z,75.86
2023-04-12T19:29:11.296Z,75.54
2023-04-12T19:31:41.198Z,75.72
2023-04-12T19:34:12.108Z,76.42
2023-04-12T19:36:43.501Z,75.93
2023-04-12T19:39:13.397Z,76.36
2023-04-12T19:41:43.070Z,77.42
2023-04-12T19:44:14.411Z,78.11
2023-04-12T19:46:44.476Z,79.31
2023-04-12T19:49:14.150Z,79.05
2023-04-12T19:51:46.457Z,77.74
2023-04-12T19:54:16.200Z,77.45
2023-04-12T19:56:47.259Z,77.34
2023-04-12T19:59:21.317Z,77.64
2023-04-12T20:01:51.070Z,77.33
2023-04-12T20:04:24.325Z,77.61
2023-04-12T20:06:57.255Z,77.22
2023-04-12T20:09:27.143Z,77.49
2023-04-12T20:11:56.781Z,78.97
2023-04-12T20:14:27.155Z,79.34
2023-04-12T20:16:57.111Z,79.27
2023-04-12T20:19:28.569Z,79.91
2023-04-12T20:22:02.160Z,79.51
2023-04-12T20:24:34.583Z,77.98
2023-04-12T20:27:04.551Z,80.70
2023-04-12T20:29:36.296Z,82.40
2023-04-12T20:32:06.084Z,83.96
2023-04-12T20:34:36.539Z,82.54
2023-04-12T20:37:06.121Z,81.00
2023-04-12T20:39:35.769Z,82.43
2023-04-12T20:42:05.440Z,82.66
2023-04-12T20:44:35.050Z,82.47
2023-04-12T20:47:04.265Z,82.18
2023-04-12T20:49:33.790Z,82.63
2023-04-12T20:52:03.464Z,82.04
2023-04-12T20:54:34.074Z,82.03
2023-04-12T20:57:06.856Z,81.76
2023-04-12T20:59:36.425Z,82.60
2023-04-12T21:02:05.374Z,82.95
2023-04-12T21:04:36.586Z,85.54
2023-04-12T21:07:06.368Z,85.91
2023-04-12T21:09:37.015Z,84.23
2023-04-12T21:12:08.990Z,83.24
2023-04-12T21:14:38.691Z,83.81
2023-04-12T21:17:08.668Z,85.87
2023-04-12T21:19:42.007Z,86.82
2023-04-12T21:22:11.565Z,87.44
2023-04-12T21:24:40.439Z,86.70
2023-04-12T21:27:10.038Z,86.69
2023-04-12T21:29:41.722Z,87.87
2023-04-12T21:32:11.473Z,88.26
2023-04-12T21:34:41.513Z,88.58
2023-04-12T21:37:11.187Z,88.12
2023-04-12T21:39:43.724Z,87.87
2023-04-12T21:42:13.383Z,88.70
2023-04-12T21:44:43.373Z,89.10
2023-04-12T21:47:13.163Z,89.19
2023-04-12T21:49:42.722Z,89.33
2023-04-12T21:52:12.308Z,89.42
2023-04-12T21:54:41.162Z,90.07
2023-04-12T21:57:10.124Z,89.96
2023-04-12T21:59:41.952Z,89.41
2023-04-12T22:02:13.148Z,89.76
2023-04-12T22:04:43.598Z,90.42
2023-04-12T22:07:13.320Z,90.79
2023-04-12T22:09:42.743Z,90.81
2023-04-12T22:12:12.958Z,91.17
2023-04-12T22:14:46.765Z,91.21
2023-04-12T22:17:19.343Z,91.06
2023-04-12T22:19:49.250Z,90.67
2023-04-12T22:22:19.701Z,90.07
2023-04-12T22:24:48.525Z,90.20
2023-04-12T22:27:17.650Z,89.87
2023-04-12T22:29:50.091Z,89.92
2023-04-12T22:32:19.679Z,90.12
2023-04-12T22:34:58.004Z,89.72
2023-04-12T22:37:39.261Z,89.35
2023-04-12T22:40:13.961Z,89.33
2023-04-12T22:42:46.810Z,89.54
2023-04-12T22:45:17.925Z,89.91
2023-04-12T22:47:47.846Z,89.79
2023-04-12T22:50:17.458Z,90.72
2023-04-12T22:52:45.307Z,90.48
2023-04-12T22:55:18.320Z,88.87
2023-04-12T22:57:47.241Z,88.37
2023-04-12T23:00:18.371Z,87.61
2023-04-12T23:02:48.824Z,86.65
2023-04-12T23:05:20.034Z,86.67
2023-04-12T23:07:49.649Z,88.24
2023-04-12T23:10:20.896Z,88.29
2023-04-12T23:12:53.731Z,89.69
2023-04-12T23:15:25.028Z,88.39
2023-04-12T23:17:54.892Z,88.09
2023-04-12T23:20:25.388Z,88.65
2023-04-12T23:22:57.794Z,88.88
2023-04-12T23:25:42.030Z,88.40
2023-04-12T23:28:19.481Z,88.35
2023-04-12T23:30:51.431Z,87.77
2023-04-12T23:33:22.356Z,89.06
2023-04-12T23:35:53.070Z,91.45
2023-04-12T23:38:32.237Z,89.07
2023-04-12T23:41:10.329Z,88.77
2023-04-12T23:43:38.669Z,89.16
2023-04-12T23:46:07.791Z,89.66
2023-04-12T23:48:36.518Z,89.65
2023-04-12T23:51:06.331Z,86.52
2023-04-12T23:53:34.187Z,86.67
2023-04-12T23:56:02.054Z,86.42
2023-04-12T23:58:30.888Z,87.02
